Kalaupapa, Hawaii
Current Conditions -  °F | °C
As of 7:54 AM on Monday 24 Nov 2014 (Local Time) from PHMK Reporting Station
Scattered Clouds Scattered Clouds  
Wind Chill: 74°   Ceiling: Unl
Heat Index: 74°   Visibility: 10mi
Dew Point: 70°   Wind: 3mph
Humidity: 87%   Direction: 140°SE
Pressure: 29.93"   Gusts: NA
Location:  21.19°N, 156.99°W
Report Text: PHMK 241754Z 14003KT 10SM FEW030 SCT045 SCT070 23/21 A2993 RMK AO2 SLP135 60005 T02330211 10233 20222 53012
Loading
Personal Weather Stations






























Interactive Weather Map New forecast layout! Learn more

10-Day Weather Forecast

Advertisements
Track Severe Weather on mobile